createdAt,value
2022-09-15T00:02:17.989Z,2375.79517
2022-09-15T00:17:20.310Z,2063.67529
2022-09-15T00:32:22.566Z,1156.3949
2022-09-15T00:47:24.933Z,873.35437
2022-09-15T01:02:27.238Z,704.69324
2022-09-15T01:17:29.550Z,848.15216
2022-09-15T01:32:31.797Z,544.75598
2022-09-15T01:47:33.996Z,230.69737
2022-09-15T02:02:36.323Z,66.88285
2022-09-15T02:17:38.864Z,12.60112
2022-09-15T02:32:41.177Z,0.96932
2022-09-15T02:47:43.375Z,0
2022-09-15T03:02:45.568Z,0
2022-09-15T03:17:47.856Z,0
2022-09-15T03:32:50.115Z,0
2022-09-15T03:47:52.361Z,0
2022-09-15T04:02:54.644Z,0
2022-09-15T04:17:56.876Z,0
2022-09-15T04:32:59.137Z,0
2022-09-15T04:48:01.475Z,0
2022-09-15T05:03:03.698Z,0
2022-09-15T05:18:05.915Z,0
2022-09-15T05:33:08.138Z,0
2022-09-15T05:48:10.343Z,0
2022-09-15T06:03:12.641Z,0
2022-09-15T06:18:14.947Z,0
2022-09-15T06:33:17.376Z,0
2022-09-15T06:48:24.935Z,0
2022-09-15T07:03:27.710Z,0
2022-09-15T07:18:30.161Z,0
2022-09-15T07:33:32.495Z,0
2022-09-15T07:48:34.729Z,0
2022-09-15T08:03:36.962Z,0
2022-09-15T08:18:39.167Z,0
2022-09-15T08:33:45.422Z,0
2022-09-15T08:48:48.258Z,0
2022-09-15T09:03:50.497Z,0
2022-09-15T09:18:52.730Z,0
2022-09-15T09:33:55.028Z,0
2022-09-15T09:48:57.339Z,0
2022-09-15T10:03:59.582Z,0
2022-09-15T10:19:01.852Z,0
2022-09-15T10:34:04.087Z,0
2022-09-15T10:49:06.350Z,0
2022-09-15T11:04:08.574Z,0
2022-09-15T11:19:10.766Z,0
2022-09-15T11:34:13.036Z,0
2022-09-15T11:49:15.339Z,0
2022-09-15T12:04:17.544Z,0
2022-09-15T12:19:19.805Z,0
2022-09-15T12:34:22.076Z,0
2022-09-15T12:49:24.334Z,0
2022-09-15T13:04:26.543Z,1.93863
2022-09-15T13:19:28.788Z,11.6318
2022-09-15T13:35:05.347Z,53.31242
2022-09-15T13:50:12.783Z,134.73503
2022-09-15T14:05:15.135Z,365.4324
2022-09-15T14:20:17.465Z,700.81598
2022-09-15T14:35:20.152Z,643.62628
2022-09-15T14:50:22.450Z,14084.17188
2022-09-15T15:05:24.736Z,5249.81934
2022-09-15T15:20:26.926Z,6399.4292
2022-09-15T15:35:29.193Z,4752.56006
2022-09-15T15:50:31.452Z,2780.96973
2022-09-15T16:05:33.682Z,2594.86084
2022-09-15T16:20:36.062Z,6749.35254
2022-09-15T16:35:38.389Z,4712.81787
2022-09-15T16:50:50.501Z,4936.72998
2022-09-15T17:06:04.740Z,5571.63232
2022-09-15T17:21:06.986Z,6161.94629
2022-09-15T17:36:09.226Z,6637.88086
2022-09-15T17:51:11.475Z,6914.13623
2022-09-15T18:06:13.714Z,6823.02051
2022-09-15T18:21:15.946Z,6835.62158
2022-09-15T18:36:18.179Z,6962.60205
2022-09-15T18:51:29.191Z,7032.39258
2022-09-15T19:06:37.190Z,7083.7666
2022-09-15T19:21:39.461Z,7440.4751
2022-09-15T19:36:41.645Z,8624.01074
2022-09-15T19:51:43.866Z,5011.36768
2022-09-15T20:06:46.094Z,4781.63916
2022-09-15T20:21:51.202Z,3788.08984
2022-09-15T20:36:53.989Z,6955.81689
2022-09-15T20:51:56.225Z,3188.08276
2022-09-15T21:06:58.471Z,2938.96826
2022-09-15T21:22:00.702Z,3320.87915
2022-09-15T21:37:03.221Z,2820.71167
2022-09-15T21:52:05.463Z,4488.90576
2022-09-15T22:07:07.688Z,2726.68799
2022-09-15T22:22:09.955Z,2835.25146
2022-09-15T22:37:12.202Z,3328.63354
2022-09-15T22:52:14.402Z,2646.23462
2022-09-15T23:07:16.653Z,2229.42847
2022-09-15T23:22:18.942Z,2324.42139
2022-09-15T23:37:21.147Z,1692.427
2022-09-15T23:52:23.575Z,739.58868
